Time;durP1;ratioP1;P1;durP2;ratioP2;P2;SDS_P1;SDS_P2;PMS_P1;PMS_P2;Temp;Humidity;BMP_temperature;BMP_pressure;BME280_temperature;BME280_humidity;BME280_pressure;Samples;Min_cycle;Max_cycle;Signal;HPM_P1;HPM_P2
2023/06/21 00:01:03;;;;;;;7.93;5.62;;;;;;;25.98;47.15;99541.75;4352180;32;33936;-59
2023/06/21 00:03:32;;;;;;;11.60;6.10;;;;;;;25.94;47.05;99541.34;4354527;32;33906;-59
2023/06/21 00:05:59;;;;;;;9.13;5.62;;;;;;;26.01;46.83;99524.84;4346577;32;34004;-59
2023/06/21 00:08:27;;;;;;;8.30;4.75;;;;;;;25.95;47.18;99533.97;4350952;32;34784;-59
2023/06/21 00:10:56;;;;;;;10.20;6.35;;;;;;;25.76;47.21;99525.59;4347577;32;33784;-60
2023/06/21 00:13:24;;;;;;;8.43;5.30;;;;;;;25.81;47.46;99529.59;4356022;32;34094;-60
2023/06/21 00:15:54;;;;;;;8.32;5.47;;;;;;;26.00;46.88;99524.03;4353701;32;34849;-60
2023/06/21 00:18:22;;;;;;;8.23;6.10;;;;;;;26.06;46.48;99525.03;4357994;32;33458;-60
2023/06/21 00:20:49;;;;;;;8.95;5.35;;;;;;;25.45;48.09;99529.09;4350787;32;35109;-60
2023/06/21 00:23:18;;;;;;;9.40;5.57;;;;;;;26.04;46.32;99523.59;4353978;32;35309;-60
2023/06/21 00:25:45;;;;;;;8.85;5.20;;;;;;;26.16;46.07;99517.16;4347017;32;33718;-59
2023/06/21 00:28:13;;;;;;;7.70;4.53;;;;;;;26.20;45.72;99526.63;4352193;32;33598;-59
2023/06/21 00:30:40;;;;;;;11.88;5.45;;;;;;;26.10;46.08;99518.06;4354237;32;33721;-59
2023/06/21 00:33:08;;;;;;;10.30;5.25;;;;;;;26.09;46.37;99513.63;4351559;32;34157;-59
2023/06/21 00:35:36;;;;;;;8.05;4.72;;;;;;;26.12;46.04;99510.44;4349658;32;33687;-59
2023/06/21 00:38:05;;;;;;;11.23;5.25;;;;;;;26.25;46.33;99513.06;4356495;32;31842;-59
2023/06/21 00:40:33;;;;;;;10.65;5.60;;;;;;;26.23;45.43;99520.69;4354695;32;34781;-59
2023/06/21 00:43:03;;;;;;;9.75;5.53;;;;;;;26.09;45.68;99524.59;4348500;32;34648;-59
2023/06/21 00:45:39;;;;;;;7.93;5.03;;;;;;;26.19;44.32;99530.41;4352944;32;34516;-59
2023/06/21 00:48:07;;;;;;;9.88;4.82;;;;;;;26.19;44.86;99532.31;4354497;32;34478;-59
2023/06/21 00:50:38;;;;;;;10.77;5.72;;;;;;;26.19;45.36;99533.16;4348851;32;35287;-59
2023/06/21 00:53:06;;;;;;;10.00;6.25;;;;;;;26.35;44.79;99539.19;4353654;32;33831;-60
2023/06/21 00:55:34;;;;;;;11.57;5.50;;;;;;;26.24;45.19;99530.59;4337090;32;34033;-60
2023/06/21 00:58:03;;;;;;;10.23;4.97;;;;;;;26.29;45.24;99531.84;4310980;33;33205;-60
2023/06/21 01:00:30;;;;;;;8.63;5.18;;;;;;;26.33;45.04;99530.34;4311105;33;33590;-60
2023/06/21 01:02:58;;;;;;;5.95;3.90;;;;;;;26.25;44.15;99536.91;4311859;33;33799;-59
2023/06/21 01:05:30;;;;;;;7.12;4.57;;;;;;;26.35;43.57;99528.19;4312310;33;34069;-60
2023/06/21 01:08:27;;;;;;;11.75;5.65;;;;;;;26.36;44.30;99521.66;4311449;33;33957;-60
2023/06/21 01:11:21;;;;;;;7.25;4.07;;;;;;;26.49;43.53;99521.59;4290813;33;33586;-59
2023/06/21 01:14:17;;;;;;;8.13;4.85;;;;;;;26.43;43.52;99520.53;4284358;33;34124;-59
2023/06/21 01:16:48;;;;;;;14.95;5.20;;;;;;;26.43;44.56;99531.53;4288230;33;35810;-60
2023/06/21 01:19:47;;;;;;;8.40;4.32;;;;;;;26.44;43.19;99532.34;4292472;33;31777;-59
2023/06/21 01:22:37;;;;;;;8.15;4.78;;;;;;;26.55;43.11;99533.56;4290240;33;33546;-59
2023/06/21 01:25:41;;;;;;;7.85;5.05;;;;;;;26.54;43.53;99531.88;4285214;33;34072;-60
2023/06/21 01:28:30;;;;;;;9.73;5.53;;;;;;;26.44;43.96;99527.69;4274166;33;33847;-59
2023/06/21 01:30:59;;;;;;;13.57;4.87;;;;;;;26.39;43.85;99522.06;4326019;33;33773;-59
2023/06/21 01:33:28;;;;;;;6.97;4.78;;;;;;;26.26;44.11;99533.12;4311907;33;34665;-59
2023/06/21 01:36:02;;;;;;;7.85;4.78;;;;;;;26.20;44.27;99523.88;4316334;33;34423;-59
2023/06/21 01:38:30;;;;;;;8.93;6.53;;;;;;;26.15;44.47;99515.47;4324297;33;34072;-59
2023/06/21 01:40:57;;;;;;;8.55;5.30;;;;;;;25.96;44.74;99521.94;4327068;33;33322;-59
2023/06/21 01:43:25;;;;;;;10.05;5.90;;;;;;;26.06;44.69;99522.28;4346263;32;34327;-59
2023/06/21 01:45:53;;;;;;;7.82;4.60;;;;;;;25.96;44.98;99517.28;4344951;32;35302;-59
2023/06/21 01:48:21;;;;;;;8.80;5.12;;;;;;;25.99;44.83;99519.59;4350395;32;34930;-59
2023/06/21 01:50:50;;;;;;;8.88;5.50;;;;;;;25.87;45.07;99520.50;4334207;32;33242;-59
2023/06/21 01:53:33;;;;;;;7.10;4.47;;;;;;;25.89;44.75;99526.63;4360929;32;34605;-59
2023/06/21 01:56:04;;;;;;;6.82;4.50;;;;;;;25.71;45.29;99528.13;4350277;32;33812;-60
2023/06/21 01:58:32;;;;;;;8.30;4.95;;;;;;;25.76;45.01;99531.06;4351978;32;33613;-59
2023/06/21 02:01:01;;;;;;;7.45;4.78;;;;;;;25.82;44.69;99534.88;4354105;32;33470;-59
2023/06/21 02:03:30;;;;;;;9.88;5.18;;;;;;;25.65;44.95;99541.88;4347341;32;33659;-59
2023/06/21 02:06:03;;;;;;;8.40;4.40;;;;;;;25.83;44.68;99535.72;4332026;32;34084;-59
2023/06/21 02:08:32;;;;;;;10.02;5.12;;;;;;;25.91;44.45;99543.69;4345628;32;33894;-59
2023/06/21 02:11:03;;;;;;;7.00;4.05;;;;;;;25.84;44.64;99542.88;4355887;32;34746;-59
2023/06/21 02:13:30;;;;;;;8.00;4.70;;;;;;;25.84;44.43;99542.88;4352863;32;33592;-59
2023/06/21 02:15:58;;;;;;;7.78;4.65;;;;;;;25.75;44.53;99548.59;4345758;32;33959;-59
2023/06/21 02:18:26;;;;;;;7.50;4.40;;;;;;;25.81;44.13;99535.94;4336456;33;33814;-59
2023/06/21 02:20:54;;;;;;;8.48;4.55;;;;;;;25.79;44.05;99543.50;4354942;32;33707;-59
2023/06/21 02:23:21;;;;;;;9.15;5.65;;;;;;;25.88;44.21;99547.72;4359286;32;33636;-59
2023/06/21 02:25:49;;;;;;;10.70;4.68;;;;;;;25.88;44.40;99549.63;4359100;32;34904;-59
2023/06/21 02:28:20;;;;;;;5.95;4.10;;;;;;;25.99;44.00;99537.94;4359327;32;34900;-59
2023/06/21 02:30:47;;;;;;;8.90;4.85;;;;;;;26.08;44.12;99544.00;4350539;32;33572;-58
2023/06/21 02:33:15;;;;;;;6.97;4.07;;;;;;;26.02;43.96;99542.97;4347544;32;34611;-59
2023/06/21 02:35:43;;;;;;;8.02;4.25;;;;;;;26.09;43.72;99541.03;4349206;32;33885;-59
2023/06/21 02:38:10;;;;;;;8.93;4.72;;;;;;;26.04;43.80;99540.03;4356613;32;33922;-59
2023/06/21 02:40:38;;;;;;;9.27;4.10;;;;;;;26.13;43.43;99531.31;4358275;32;33530;-59
2023/06/21 02:43:06;;;;;;;7.00;4.47;;;;;;;26.16;43.05;99535.50;4354451;32;35154;-59
2023/06/21 02:45:33;;;;;;;9.23;4.10;;;;;;;26.11;43.76;99536.19;4354601;32;33986;-58
2023/06/21 02:48:01;;;;;;;8.77;4.45;;;;;;;26.18;43.73;99534.22;4351045;32;33969;-59
2023/06/21 02:50:28;;;;;;;10.77;4.93;;;;;;;26.16;43.67;99530.88;4355522;32;33021;-59
2023/06/21 02:52:56;;;;;;;10.85;5.82;;;;;;;26.21;43.46;99527.47;4345561;32;35273;-60
2023/06/21 02:55:24;;;;;;;7.32;4.72;;;;;;;26.25;43.58;99524.03;4358384;32;33916;-59
2023/06/21 02:57:52;;;;;;;8.77;5.80;;;;;;;26.23;43.24;99530.84;4346938;32;32355;-60
2023/06/21 03:00:23;;;;;;;10.20;5.25;;;;;;;26.25;42.98;99537.75;4333128;33;33318;-59
2023/06/21 03:02:51;;;;;;;7.43;4.90;;;;;;;26.15;43.67;99539.31;4335502;33;33883;-59
2023/06/21 03:05:19;;;;;;;8.25;4.82;;;;;;;26.25;43.77;99531.44;4333071;33;33814;-59
2023/06/21 03:07:46;;;;;;;8.40;5.07;;;;;;;26.28;44.45;99527.41;4333210;33;35578;-60
2023/06/21 03:10:14;;;;;;;9.23;4.90;;;;;;;26.30;44.73;99525.31;4329790;33;33107;-60
2023/06/21 03:12:43;;;;;;;6.10;4.07;;;;;;;26.30;44.71;99525.31;4341617;33;32308;-59
2023/06/21 03:15:11;;;;;;;8.10;5.47;;;;;;;26.27;44.46;99531.22;4332717;33;33511;-60
2023/06/21 03:17:40;;;;;;;7.15;4.47;;;;;;;26.31;44.26;99530.56;4333768;33;34577;-60
2023/06/21 03:20:12;;;;;;;9.27;5.10;;;;;;;26.34;43.79;99537.50;4342943;33;33708;-59
2023/06/21 03:22:42;;;;;;;7.65;4.72;;;;;;;26.40;43.93;99533.88;4338943;32;34850;-59
2023/06/21 03:25:11;;;;;;;6.80;4.18;;;;;;;26.45;44.19;99534.03;4339994;33;34489;-59
2023/06/21 03:27:39;;;;;;;6.72;4.60;;;;;;;26.43;44.36;99533.44;4337705;33;34596;-59
2023/06/21 03:30:11;;;;;;;9.82;5.10;;;;;;;26.41;44.09;99532.81;4335108;32;33357;-59
2023/06/21 03:32:46;;;;;;;10.23;4.95;;;;;;;26.37;44.51;99531.56;4336453;33;33333;-59
2023/06/21 03:35:18;;;;;;;9.95;5.45;;;;;;;26.30;44.59;99533.53;4328756;33;34962;-58
2023/06/21 03:37:47;;;;;;;6.57;4.12;;;;;;;26.32;44.62;99531.38;4337001;32;32420;-58
2023/06/21 03:40:14;;;;;;;7.47;4.80;;;;;;;26.25;45.13;99534.19;4352340;32;33490;-59
2023/06/21 03:42:44;;;;;;;11.15;4.90;;;;;;;26.24;45.28;99532.50;4352746;32;33470;-59
2023/06/21 03:45:12;;;;;;;8.23;4.95;;;;;;;26.24;45.58;99527.84;4347314;32;33735;-58
2023/06/21 03:47:43;;;;;;;10.07;5.37;;;;;;;26.18;45.59;99528.75;4351561;32;35030;-59
2023/06/21 03:50:12;;;;;;;12.73;5.20;;;;;;;26.14;45.67;99533.00;4355211;32;33056;-58
2023/06/21 03:52:40;;;;;;;8.15;4.80;;;;;;;26.01;46.43;99524.84;4348735;32;34577;-58
2023/06/21 03:55:08;;;;;;;9.75;4.07;;;;;;;26.04;45.98;99535.37;4354812;32;33812;-58
2023/06/21 03:57:38;;;;;;;6.32;4.25;;;;;;;26.00;46.21;99536.87;4353549;32;34366;-63
2023/06/21 04:00:06;;;;;;;7.78;4.75;;;;;;;26.03;46.25;99533.69;4355547;32;34342;-58
2023/06/21 04:02:41;;;;;;;7.70;4.85;;;;;;;26.04;46.57;99534.56;4354863;32;33202;-59
2023/06/21 04:05:10;;;;;;;7.30;4.93;;;;;;;26.02;46.84;99534.75;4352222;32;34204;-58
2023/06/21 04:07:38;;;;;;;13.18;5.37;;;;;;;26.01;47.02;99531.19;4350979;32;34816;-59
2023/06/21 04:10:06;;;;;;;10.43;4.95;;;;;;;26.13;46.53;99536.81;4346805;32;33361;-58
2023/06/21 04:12:34;;;;;;;7.97;4.65;;;;;;;26.15;46.59;99540.16;4357276;32;33753;-58
2023/06/21 04:15:03;;;;;;;7.65;4.82;;;;;;;26.24;46.51;99540.75;4360476;32;34478;-58
2023/06/21 04:17:31;;;;;;;9.55;4.55;;;;;;;26.26;46.56;99549.59;4354226;32;34473;-58
2023/06/21 04:19:59;;;;;;;9.93;5.00;;;;;;;26.31;47.10;99559.91;4352297;32;33687;-59
2023/06/21 04:22:29;;;;;;;15.10;4.75;;;;;;;26.35;46.21;99558.37;4350090;32;34202;-58
2023/06/21 04:24:57;;;;;;;10.68;5.47;;;;;;;26.35;45.56;99563.88;4356657;32;34636;-58
2023/06/21 04:27:25;;;;;;;9.30;4.93;;;;;;;26.24;45.73;99576.41;4331039;33;32397;-58
2023/06/21 04:29:52;;;;;;;10.68;4.90;;;;;;;26.28;45.92;99576.78;4339776;33;33520;-59
2023/06/21 04:32:19;;;;;;;14.73;6.22;;;;;;;26.27;46.30;99577.88;4338646;33;35055;-59
2023/06/21 04:34:48;;;;;;;10.48;5.70;;;;;;;26.39;46.21;99584.34;4335880;33;32771;-59
2023/06/21 04:37:18;;;;;;;15.10;6.22;;;;;;;26.46;46.28;99591.44;4337028;33;34320;-59
2023/06/21 04:39:45;;;;;;;10.82;5.30;;;;;;;26.53;46.27;99602.41;4329270;33;34616;-59
2023/06/21 04:42:13;;;;;;;8.88;5.75;;;;;;;26.58;46.21;99602.59;4335406;33;33602;-59
2023/06/21 04:44:41;;;;;;;16.98;6.03;;;;;;;26.59;45.97;99600.69;4343041;33;33542;-58
2023/06/21 04:47:08;;;;;;;12.13;6.03;;;;;;;26.63;46.08;99601.91;4331374;33;34483;-59
2023/06/21 04:49:36;;;;;;;14.77;5.87;;;;;;;26.67;46.37;99605.88;4329331;32;34371;-59
2023/06/21 04:52:04;;;;;;;10.38;6.28;;;;;;;26.82;46.59;99597.34;4341583;33;34540;-59
2023/06/21 04:54:32;;;;;;;11.93;6.65;;;;;;;27.00;46.33;99591.91;4331035;33;34022;-59
2023/06/21 04:57:00;;;;;;;11.65;6.50;;;;;;;26.80;46.68;99588.47;4332096;33;32681;-59
2023/06/21 04:59:27;;;;;;;11.65;6.00;;;;;;;27.03;46.29;99591.44;4358549;32;34331;-59
2023/06/21 05:01:55;;;;;;;11.27;6.05;;;;;;;27.27;46.24;99586.16;4352330;32;33715;-59
2023/06/21 05:04:23;;;;;;;12.90;6.57;;;;;;;27.31;45.56;99592.88;4347405;32;33972;-59
2023/06/21 05:06:50;;;;;;;10.90;6.43;;;;;;;27.21;45.14;99587.06;4353138;32;34918;-59
2023/06/21 05:09:18;;;;;;;11.25;6.82;;;;;;;27.25;45.40;99585.53;4358554;32;34921;-59
2023/06/21 05:11:46;;;;;;;8.27;5.60;;;;;;;27.42;44.83;99575.66;4359495;32;34594;-59
2023/06/21 05:14:13;;;;;;;10.50;4.72;;;;;;;27.49;44.01;99562.66;4360501;32;34232;-59
2023/06/21 05:16:41;;;;;;;10.43;5.32;;;;;;;27.69;44.43;99567.06;4356515;32;33817;-59
2023/06/21 05:19:09;;;;;;;10.13;6.80;;;;;;;27.76;44.57;99568.66;4359193;32;33209;-59
2023/06/21 05:21:36;;;;;;;12.10;5.68;;;;;;;27.80;44.39;99575.44;4348879;32;34161;-59
2023/06/21 05:24:04;;;;;;;11.50;6.35;;;;;;;27.86;43.44;99587.41;4348596;32;32274;-59
2023/06/21 05:26:32;;;;;;;9.95;6.37;;;;;;;27.98;43.56;99590.22;4349278;32;33464;-59
2023/06/21 05:28:59;;;;;;;9.90;6.25;;;;;;;28.12;43.00;99590.84;4356614;32;33625;-59
2023/06/21 05:31:28;;;;;;;12.18;5.78;;;;;;;28.04;43.26;99598.38;4358019;32;34269;-59
2023/06/21 05:33:56;;;;;;;11.77;6.43;;;;;;;28.22;43.07;99594.75;4346899;32;35314;-59
2023/06/21 05:36:23;;;;;;;8.70;6.18;;;;;;;28.14;41.98;99600.56;4353449;32;34096;-59
2023/06/21 05:38:51;;;;;;;8.32;5.72;;;;;;;28.07;42.52;99597.06;4350414;32;33778;-59
2023/06/21 05:41:19;;;;;;;13.32;7.12;;;;;;;28.03;42.00;99590.37;4350035;32;34508;-59
2023/06/21 05:43:46;;;;;;;8.68;5.47;;;;;;;28.10;42.16;99586.44;4347729;32;35018;-59
2023/06/21 05:46:14;;;;;;;11.02;6.22;;;;;;;27.83;42.94;99591.47;4346585;32;34132;-58
2023/06/21 05:48:42;;;;;;;10.35;5.62;;;;;;;27.91;42.81;99589.47;4350512;32;34279;-59
2023/06/21 05:51:10;;;;;;;9.65;6.30;;;;;;;28.09;42.53;99595.78;4350688;32;34005;-59
2023/06/21 05:53:38;;;;;;;10.10;6.05;;;;;;;28.15;43.08;99595.91;4332282;32;206069;-59
2023/06/21 05:56:06;;;;;;;8.98;6.15;;;;;;;28.22;43.60;99591.13;4354047;32;33902;-59
2023/06/21 05:58:33;;;;;;;9.40;6.15;;;;;;;28.24;43.73;99598.09;4356909;32;34676;-59
2023/06/21 06:01:02;;;;;;;11.52;6.82;;;;;;;28.53;42.48;99599.16;4353345;32;33901;-59
2023/06/21 06:03:50;;;;;;;9.20;5.85;;;;;;;28.30;41.74;99604.56;4348085;32;34084;-59
2023/06/21 06:06:18;;;;;;;9.80;6.78;;;;;;;28.42;41.74;99607.41;4347848;32;33665;-59
2023/06/21 06:08:45;;;;;;;10.85;6.32;;;;;;;28.16;42.75;99603.09;4356170;32;32332;-59
2023/06/21 06:11:13;;;;;;;10.20;6.55;;;;;;;28.36;42.09;99595.38;4350989;32;33481;-58
2023/06/21 06:13:40;;;;;;;9.60;6.43;;;;;;;28.29;42.59;99598.25;4352519;32;33989;-59
2023/06/21 06:16:09;;;;;;;12.27;6.93;;;;;;;28.45;42.60;99594.00;4345963;32;33688;-59
2023/06/21 06:18:37;;;;;;;11.80;6.95;;;;;;;28.13;42.62;99598.91;4347179;32;34769;-59
2023/06/21 06:21:04;;;;;;;9.27;6.22;;;;;;;28.37;41.65;99594.31;4318256;33;33758;-59
2023/06/21 06:23:32;;;;;;;9.18;6.18;;;;;;;28.13;41.31;99598.91;4324459;33;34241;-59
2023/06/21 06:26:00;;;;;;;11.77;6.55;;;;;;;28.27;41.98;99589.37;4321944;33;33758;-59
2023/06/21 06:28:27;;;;;;;9.35;6.18;;;;;;;28.20;41.66;99591.38;4327012;33;33355;-58
2023/06/21 06:30:55;;;;;;;9.43;5.62;;;;;;;28.20;41.78;99596.06;4330389;33;33698;-58
2023/06/21 06:33:23;;;;;;;10.73;5.57;;;;;;;28.31;41.64;99587.84;4327247;33;35119;-59
2023/06/21 06:35:50;;;;;;;9.57;6.05;;;;;;;27.99;42.61;99587.22;4332460;33;35125;-59
2023/06/21 06:38:18;;;;;;;11.57;5.62;;;;;;;28.20;42.43;99585.88;4328716;33;33213;-59
2023/06/21 06:40:46;;;;;;;10.07;6.05;;;;;;;28.31;42.97;99586.97;4335718;33;33762;-59
2023/06/21 06:43:14;;;;;;;17.55;6.35;;;;;;;28.53;42.25;99590.06;4331752;33;33629;-59
2023/06/21 06:45:41;;;;;;;7.32;5.25;;;;;;;28.60;41.46;99592.72;4335840;33;33919;-60
2023/06/21 06:48:09;;;;;;;9.30;5.68;;;;;;;28.30;42.14;99588.91;4331735;33;34528;-59
2023/06/21 06:50:38;;;;;;;10.05;5.25;;;;;;;27.73;43.38;99598.53;4326834;33;34811;-59
2023/06/21 06:53:06;;;;;;;10.35;5.47;;;;;;;28.31;42.81;99592.47;4331979;32;35001;-59
2023/06/21 06:55:34;;;;;;;9.63;5.82;;;;;;;28.21;42.77;99595.81;4328718;32;34228;-59
2023/06/21 06:58:02;;;;;;;13.85;6.70;;;;;;;28.38;42.45;99589.63;4329092;33;33432;-58
2023/06/21 07:00:32;;;;;;;8.98;6.50;;;;;;;28.42;42.38;99588.97;4338821;32;33837;-58
2023/06/21 07:03:00;;;;;;;12.15;6.90;;;;;;;28.44;43.38;99597.81;4346824;32;34157;-59
2023/06/21 07:05:28;;;;;;;10.05;5.82;;;;;;;28.67;41.63;99597.06;4348331;32;33967;-59
2023/06/21 07:07:56;;;;;;;14.52;7.03;;;;;;;28.60;41.23;99603.72;4344993;32;33469;-60
2023/06/21 07:10:23;;;;;;;11.70;6.68;;;;;;;28.12;41.98;99610.13;4345139;32;34217;-58
2023/06/21 07:12:51;;;;;;;11.88;6.82;;;;;;;28.26;41.85;99603.38;4347868;32;35396;-58
2023/06/21 07:15:18;;;;;;;9.23;6.10;;;;;;;28.21;42.49;99598.56;4346813;32;34484;-58
2023/06/21 07:17:46;;;;;;;8.32;5.80;;;;;;;28.60;42.46;99607.31;4352676;32;33447;-59
2023/06/21 07:20:14;;;;;;;15.48;5.95;;;;;;;28.55;42.29;99612.72;4352693;32;33444;-59
2023/06/21 07:22:41;;;;;;;9.13;6.43;;;;;;;28.96;41.10;99602.72;4348136;32;34186;-59
2023/06/21 07:25:09;;;;;;;13.00;7.75;;;;;;;29.07;41.33;99599.16;4349727;32;34394;-58
2023/06/21 07:27:36;;;;;;;12.02;7.25;;;;;;;28.75;42.49;99599.47;4346859;32;34053;-59
2023/06/21 07:30:05;;;;;;;11.50;6.93;;;;;;;28.92;42.81;99596.00;4352518;32;34018;-58
2023/06/21 07:32:33;;;;;;;11.23;6.43;;;;;;;28.81;42.33;99599.59;4351432;32;34106;-58
2023/06/21 07:35:01;;;;;;;8.63;6.15;;;;;;;29.13;41.93;99591.88;4352070;32;34470;-59
2023/06/21 07:37:30;;;;;;;14.57;8.27;;;;;;;29.30;41.29;99589.22;4343501;32;34014;-59
2023/06/21 07:39:58;;;;;;;13.43;7.05;;;;;;;29.14;42.76;99593.53;4353078;32;33639;-59
2023/06/21 07:42:26;;;;;;;13.80;8.15;;;;;;;29.21;42.06;99589.59;4348849;32;34966;-58
2023/06/21 07:44:54;;;;;;;10.57;7.60;;;;;;;29.77;41.59;99586.41;4337237;32;33957;-59
2023/06/21 07:47:22;;;;;;;15.88;6.82;;;;;;;29.84;41.37;99585.19;4337014;32;33109;-58
2023/06/21 07:49:50;;;;;;;10.18;6.00;;;;;;;29.95;40.76;99577.94;4336218;32;33997;-58
2023/06/21 07:52:18;;;;;;;14.40;5.97;;;;;;;29.69;41.92;99571.06;4336926;32;32768;-59
2023/06/21 07:54:48;;;;;;;27.00;8.52;;;;;;;29.86;42.00;99572.00;4338865;32;34249;-59
2023/06/21 07:57:16;;;;;;;12.77;8.02;;;;;;;29.76;41.88;99562.66;4338422;32;34821;-59
2023/06/21 07:59:44;;;;;;;12.73;8.82;;;;;;;29.91;42.57;99566.56;4351666;32;34983;-58
2023/06/21 08:02:13;;;;;;;12.85;7.05;;;;;;;30.25;41.63;99577.75;4354196;32;34392;-59
2023/06/21 08:04:42;;;;;;;14.48;8.80;;;;;;;30.32;40.54;99586.69;4360619;32;35444;-59
2023/06/21 08:07:10;;;;;;;11.95;7.30;;;;;;;29.48;43.07;99589.09;4353234;32;33970;-59
2023/06/21 08:09:37;;;;;;;12.37;7.55;;;;;;;29.89;42.74;99592.75;4351321;32;34638;-58
2023/06/21 08:12:06;;;;;;;13.43;6.80;;;;;;;29.90;43.04;99594.41;4361945;32;35348;-59
2023/06/21 08:14:33;;;;;;;9.40;6.25;;;;;;;30.13;41.57;99599.00;4359424;32;34233;-59
2023/06/21 08:17:01;;;;;;;15.40;8.68;;;;;;;30.22;42.03;99608.59;4348007;32;33053;-59
2023/06/21 08:19:29;;;;;;;12.32;7.97;;;;;;;30.57;41.15;99605.66;4353833;32;33717;-58
2023/06/21 08:21:57;;;;;;;15.48;8.32;;;;;;;30.79;40.52;99607.72;4355372;32;33719;-59
2023/06/21 08:24:26;;;;;;;11.52;7.50;;;;;;;30.60;40.89;99605.16;4357298;32;35342;-59
2023/06/21 08:26:54;;;;;;;13.48;7.85;;;;;;;30.96;40.01;99607.72;4350733;32;34450;-59
2023/06/21 08:29:21;;;;;;;16.60;7.82;;;;;;;30.86;40.12;99614.75;4360102;32;34026;-59
2023/06/21 08:31:49;;;;;;;14.43;9.05;;;;;;;30.80;40.56;99617.69;4347810;32;32112;-59
2023/06/21 08:34:16;;;;;;;13.57;8.75;;;;;;;30.65;41.42;99615.44;4346094;32;33656;-59
2023/06/21 08:36:44;;;;;;;15.98;10.13;;;;;;;30.97;40.22;99618.50;4336986;32;34838;-59
2023/06/21 08:39:11;;;;;;;11.82;9.07;;;;;;;30.96;40.28;99622.38;4336764;32;32170;-60
2023/06/21 08:41:39;;;;;;;13.95;8.32;;;;;;;31.14;40.76;99626.81;4337986;32;33193;-59
2023/06/21 08:44:07;;;;;;;12.77;8.25;;;;;;;31.09;40.31;99629.47;4334931;32;34037;-60
2023/06/21 08:46:35;;;;;;;11.50;6.70;;;;;;;31.10;40.84;99625.63;4335576;32;33460;-59
2023/06/21 08:49:05;;;;;;;10.82;6.68;;;;;;;31.41;40.51;99635.25;4332302;32;35817;-59
2023/06/21 08:51:36;;;;;;;14.13;8.07;;;;;;;31.51;39.98;99635.41;4332935;32;34138;-59
2023/06/21 08:54:06;;;;;;;12.88;8.25;;;;;;;31.45;40.63;99641.13;4322919;32;33982;-60
2023/06/21 08:56:51;;;;;;;14.98;7.70;;;;;;;31.65;39.94;99637.78;4329506;32;33112;-59
2023/06/21 08:59:28;;;;;;;12.82;8.63;;;;;;;31.53;39.99;99644.28;4339225;32;33537;-59
2023/06/21 09:02:04;;;;;;;13.05;9.05;;;;;;;31.48;39.55;99644.22;4324014;32;33945;-59
2023/06/21 09:04:41;;;;;;;10.48;8.18;;;;;;;31.64;39.90;99645.25;4324145;32;33911;-59
2023/06/21 09:07:09;;;;;;;13.65;9.15;;;;;;;31.75;39.34;99638.78;4295524;33;34621;-59
2023/06/21 09:09:37;;;;;;;16.08;8.65;;;;;;;31.66;40.56;99643.09;4298783;33;35382;-59
2023/06/21 09:12:07;;;;;;;12.68;8.75;;;;;;;31.67;39.90;99649.44;4287704;33;33600;-59
2023/06/21 09:14:35;;;;;;;14.50;9.65;;;;;;;31.45;40.38;99650.25;4299833;33;37580;-59
2023/06/21 09:17:03;;;;;;;16.10;8.52;;;;;;;31.29;40.44;99649.13;4297437;33;34971;-59
2023/06/21 09:19:30;;;;;;;10.70;8.07;;;;;;;31.30;40.78;99648.06;4292851;33;35287;-60
2023/06/21 09:22:00;;;;;;;12.68;8.65;;;;;;;31.49;40.60;99645.03;4296589;33;32462;-60
2023/06/21 09:24:28;;;;;;;10.43;8.82;;;;;;;31.56;40.42;99642.94;4280725;33;33692;-59
2023/06/21 09:26:55;;;;;;;15.93;10.43;;;;;;;31.60;40.97;99641.34;4280967;33;31840;-59
2023/06/21 09:29:23;;;;;;;12.93;9.13;;;;;;;31.42;40.76;99649.91;4296087;33;34917;-59
2023/06/21 09:31:50;;;;;;;14.02;11.00;;;;;;;31.40;40.57;99650.19;4280536;33;32562;-58
2023/06/21 09:34:18;;;;;;;11.35;8.95;;;;;;;31.42;41.23;99647.97;4284360;33;32354;-58
2023/06/21 09:36:45;;;;;;;13.32;8.27;;;;;;;31.47;40.40;99650.00;4304560;33;34702;-58
2023/06/21 09:39:13;;;;;;;15.18;8.90;;;;;;;31.50;41.01;99644.81;4331458;32;34228;-59
2023/06/21 09:41:41;;;;;;;16.73;11.18;;;;;;;31.40;40.89;99649.34;4334870;32;33355;-59
2023/06/21 09:44:09;;;;;;;14.73;9.73;;;;;;;31.40;41.26;99652.13;4337761;32;33545;-59
2023/06/21 09:46:36;;;;;;;16.35;8.75;;;;;;;31.57;41.66;99660.38;4335992;32;33287;-59
2023/06/21 09:49:08;;;;;;;13.05;9.88;;;;;;;31.64;41.63;99659.09;4323339;32;33320;-65
2023/06/21 09:51:42;;;;;;;12.93;10.30;;;;;;;31.31;41.56;99673.78;4338204;32;33792;-59
2023/06/21 09:54:09;;;;;;;10.93;6.35;;;;;;;31.42;41.17;99675.63;4336680;32;34073;-59
2023/06/21 09:56:37;;;;;;;10.73;7.35;;;;;;;31.55;42.09;99666.16;4333979;32;33178;-59
2023/06/21 09:59:15;;;;;;;15.10;8.55;;;;;;;31.69;42.24;99670.25;4338364;32;32629;-59
2023/06/21 10:01:45;;;;;;;12.65;7.62;;;;;;;31.51;41.87;99665.81;4335934;32;33003;-59
2023/06/21 10:04:14;;;;;;;12.20;9.63;;;;;;;31.68;42.40;99665.78;4337347;32;32623;-59
2023/06/21 10:06:51;;;;;;;14.93;8.50;;;;;;;31.37;42.51;99663.69;4339336;32;32932;-59
2023/06/21 10:09:19;;;;;;;14.65;8.63;;;;;;;31.62;42.17;99653.00;4342864;32;33947;-59
2023/06/21 10:11:49;;;;;;;12.95;8.98;;;;;;;31.54;41.60;99656.19;4333746;32;33264;-59
2023/06/21 10:14:26;;;;;;;12.07;9.60;;;;;;;31.44;41.50;99654.09;4335075;32;33740;-59
2023/06/21 10:16:54;;;;;;;14.52;7.90;;;;;;;30.94;43.08;99656.88;4336840;32;33360;-59
2023/06/21 10:19:25;;;;;;;13.65;7.68;;;;;;;31.14;42.75;99664.66;4334882;32;33494;-60
2023/06/21 10:22:11;;;;;;;14.98;9.63;;;;;;;31.54;42.81;99667.25;4334795;32;34325;-59
2023/06/21 10:24:48;;;;;;;13.48;8.38;;;;;;;31.48;42.56;99666.34;4334538;32;34146;-59
2023/06/21 10:27:18;;;;;;;14.23;9.40;;;;;;;31.81;41.81;99667.34;4335565;32;33808;-59
2023/06/21 10:29:56;;;;;;;17.77;11.68;;;;;;;31.79;42.15;99662.06;4339820;32;34303;-60
2023/06/21 10:32:25;;;;;;;15.00;10.82;;;;;;;31.84;42.24;99660.47;4331739;32;33878;-60
2023/06/21 10:35:13;;;;;;;28.87;11.30;;;;;;;31.90;42.32;99665.84;4335475;32;34271;-60
2023/06/21 10:38:03;;;;;;;15.05;11.50;;;;;;;31.93;42.53;99670.88;4336448;32;33377;-59
2023/06/21 10:40:35;;;;;;;12.10;8.93;;;;;;;31.91;42.66;99669.44;4339143;32;33887;-60
2023/06/21 10:43:03;;;;;;;15.88;10.60;;;;;;;31.98;42.07;99676.47;4338723;32;35418;-59
2023/06/21 10:45:31;;;;;;;17.05;11.35;;;;;;;31.84;42.14;99672.38;4339048;32;33797;-60
2023/06/21 10:47:59;;;;;;;16.77;10.05;;;;;;;31.80;42.84;99668.44;4330291;32;35531;-59
2023/06/21 10:50:27;;;;;;;14.77;10.02;;;;;;;32.05;42.83;99675.44;4321984;32;34070;-60
2023/06/21 10:52:57;;;;;;;13.90;10.77;;;;;;;32.09;42.60;99677.44;4333701;32;34281;-60
2023/06/21 10:55:25;;;;;;;26.40;11.10;;;;;;;32.08;42.81;99681.31;4334263;32;32623;-60
2023/06/21 10:57:54;;;;;;;17.12;11.15;;;;;;;32.08;42.41;99680.47;4331964;32;32110;-60
2023/06/21 11:00:23;;;;;;;16.83;9.90;;;;;;;32.06;42.20;99679.88;4338775;32;33609;-60
2023/06/21 11:02:51;;;;;;;15.73;10.38;;;;;;;32.17;42.12;99684.47;4319203;32;33840;-64
2023/06/21 11:05:21;;;;;;;17.83;11.48;;;;;;;32.24;42.58;99674.03;4336678;32;34278;-60
2023/06/21 11:07:50;;;;;;;15.88;11.43;;;;;;;32.31;43.06;99673.81;4337354;32;34183;-60
2023/06/21 11:10:42;;;;;;;18.20;10.70;;;;;;;32.32;43.12;99681.03;4335013;32;33300;-60
2023/06/21 11:13:11;;;;;;;14.23;12.37;;;;;;;32.45;43.22;99669.56;4320960;32;33751;-60
2023/06/21 11:15:48;;;;;;;18.37;12.48;;;;;;;32.25;42.89;99673.75;4317927;32;33896;-60
2023/06/21 11:18:18;;;;;;;18.27;11.40;;;;;;;32.02;44.08;99676.78;4345820;32;34698;-60
2023/06/21 11:20:47;;;;;;;18.45;13.25;;;;;;;32.17;43.69;99674.22;4296330;33;32980;-61
2023/06/21 11:23:16;;;;;;;15.88;11.90;;;;;;;31.66;44.11;99656.91;4300216;33;35791;-60
2023/06/21 11:25:52;;;;;;;13.35;10.02;;;;;;;32.15;43.33;99659.78;4302182;33;32803;-61
2023/06/21 11:28:19;;;;;;;16.05;10.85;;;;;;;32.10;43.42;99667.19;4301277;33;32842;-61
2023/06/21 11:31:08;;;;;;;13.27;10.77;;;;;;;32.22;44.30;99665.97;4305430;33;34806;-60
2023/06/21 11:33:56;;;;;;;15.20;12.00;;;;;;;32.41;42.18;99660.09;4300144;33;33900;-61
2023/06/21 11:36:29;;;;;;;14.13;11.75;;;;;;;32.03;42.48;99661.84;4306715;33;33284;-61
2023/06/21 11:38:59;;;;;;;17.77;10.45;;;;;;;32.53;41.63;99654.44;4300568;33;34182;-60